D/T METAR WX W/DIR W/SPE G/SPE TEMP DEWP
19/03/19 03:50 EGOP 190350Z AUTO 26005KT //// // ///////// 08/08 Q//// W (260°) 5.8mph 8°C 8°C
19/03/19 02:50 EGOP 190250Z AUTO 22007KT //// // ///////// 08/08 Q//// SW (220°) 8.1mph 8°C 8°C
19/03/19 01:50 EGOP 190150Z AUTO 25002KT //// // ///////// 07/06 Q//// WSW (250°) 2.3mph 7°C 6°C
19/03/19 00:50 EGOP 190050Z AUTO 27005KT //// // ///////// 08/07 Q//// W (270°) 5.8mph 8°C 7°C
18/03/19 23:50 EGOP 182350Z AUTO 26004KT //// // ///////// 08/07 Q//// W (260°) 4.6mph 8°C 7°C
18/03/19 22:50 EGOP 182250Z AUTO 28004KT //// // ///////// 07/06 Q//// W (280°) 4.6mph 7°C 6°C
18/03/19 21:50 EGOP 182150Z AUTO 29010KT //// // ///////// 09/07 Q//// WNW (290°) 11.5mph 9°C 7°C
18/03/19 20:50 EGOP 182050Z AUTO 23006KT //// // BKN011/// 09/08 Q//// SW (230°) 6.9mph 9°C 8°C
18/03/19 19:50 EGOP 181950Z AUTO 25005KT 8000 // FEW012/// BKN038/// 09/08 Q1024 WSW (250°) 5.8mph 9°C 8°C
18/03/19 18:50 EGOP 181850Z AUTO 28010KT 9999 // FEW029/// BKN042/// 09/07 Q1023 W (280°) 11.5mph 9°C 7°C
18/03/19 17:50 EGOP 181750Z AUTO 29011KT 9999 // SCT017/// BKN039/// 10/07 Q1023 WNW (290°) 12.7mph 10°C 7°C
18/03/19 16:50 EGOP 181650Z AUTO 27011KT 9999 // BKN031/// 09/08 Q1022 W (270°) 12.7mph 9°C 8°C
18/03/19 15:50 EGOP 181550Z AUTO 27013KT 9999 // FEW015/// SCT024/// BKN034/// 09/08 Q1022 W (270°) 15.0mph 9°C 8°C
18/03/19 14:50 EGOP 181450Z AUTO 26011KT 9999 // FEW019/// BKN024/// 09/07 Q1022 W (260°) 12.7mph 9°C 7°C
18/03/19 13:50 EGOP 181350Z 27013KT 9999 SCT028 BKN041 BKN050 09/07 Q1022 BLU W (270°) 15.0mph 9°C 7°C
18/03/19 12:50 EGOP 181250Z 27015KT 9999 -RA SCT021 BKN034 09/07 Q1022 WHT -RA W (270°) 17.3mph 9°C 7°C
18/03/19 11:50 EGOP 181150Z 27015KT 9999 -RA SCT013 BKN022 09/07 Q1022 GRN -RA W (270°) 17.3mph 9°C 7°C
18/03/19 10:50 EGOP 181050Z 27016KT 9999 -RA SCT020 BKN026 08/06 Q1022 WHT -RA W (270°) 18.4mph 8°C 6°C
18/03/19 09:50 EGOP 180950Z 27014KT 9999 -RA SCT024 BKN034 08/05 Q1022 WHT -RA W (270°) 16.1mph 8°C 5°C
18/03/19 08:50 EGOP 180850Z 27010KT 9999 -RA BKN021 BKN032 07/05 Q1021 WHT -RA W (270°) 11.5mph 7°C 5°C
18/03/19 07:50 EGOP 180750Z AUTO 28011KT 9999 // FEW024/// BKN060/// 07/05 Q1021 W (280°) 12.7mph 7°C 5°C
18/03/19 06:50 EGOP 180650Z AUTO 29015KT 9999 // OVC050/// 07/04 Q1021 WNW (290°) 17.3mph 7°C 4°C
18/03/19 05:50 EGOP 180550Z AUTO 28010KT 9000 // SCT080/// BKN170/// 07/05 Q1021 W (280°) 11.5mph 7°C 5°C
18/03/19 04:50 EGOP 180450Z AUTO 28015KT 7000 // FEW046/// 07/05 Q1020 W (280°) 17.3mph 7°C 5°C
18/03/19 03:50 EGOP 180350Z AUTO 28010KT 8000 // NCD 07/05 Q1020 W (280°) 11.5mph 7°C 5°C
18/03/19 02:50 EGOP 180250Z AUTO 28013KT 8000 // FEW140/// 07/05 Q1020 W (280°) 15.0mph 7°C 5°C
18/03/19 01:50 EGOP 180150Z AUTO 30010KT 9999 // NCD 06/04 Q1019 WNW (300°) 11.5mph 6°C 4°C
18/03/19 00:50 EGOP 180050Z AUTO 29010KT 9999 // FEW140/// 06/04 Q1019 WNW (290°) 11.5mph 6°C 4°C
17/03/19 23:50 EGOP 172350Z AUTO 30012KT 9999 // NCD 06/04 Q1019 WNW (300°) 13.8mph 6°C 4°C
17/03/19 22:50 EGOP 172250Z AUTO 27003KT 9999 // BKN036/// 05/03 Q1018 W (270°) 3.5mph 5°C 3°C
17/03/19 21:50 EGOP 172150Z AUTO 31008KT 9999 // FEW039/// 07/04 Q1017 NW (310°) 9.2mph 7°C 4°C
17/03/19 20:50 EGOP 172050Z AUTO 31010KT 9999 // NCD 07/04 Q1016 NW (310°) 11.5mph 7°C 4°C
17/03/19 19:50 EGOP 171950Z AUTO 29012KT 9999 // FEW050/// 08/05 Q1015 WNW (290°) 13.8mph 8°C 5°C
17/03/19 18:50 EGOP 171850Z AUTO 28015KT 9999 // FEW060/// 08/06 Q1014 W (280°) 17.3mph 8°C 6°C
17/03/19 17:50 EGOP 171750Z AUTO 31009KT 9999 // FEW038/// 08/05 Q1012 NW (310°) 10.4mph 8°C 5°C
17/03/19 16:50 EGOP 171650Z AUTO 29024G37KT 6000 // SCT050/// 09/05 Q1011 WNW (290°) 27.6mph 42.6mph 9°C 5°C
17/03/19 15:50 EGOP 171550Z AUTO 28026KT 9999 // BKN050/// 10/05 Q1010 W (280°) 29.9mph 10°C 5°C
17/03/19 14:50 EGOP 171450Z AUTO 27019KT 9999 // FEW034/// SCT050/// 08/05 Q1009 W (270°) 21.9mph 8°C 5°C
17/03/19 13:50 EGOP 171350Z AUTO 27025KT 9999 // FEW034/// SCT040/// BKN050/// 08/03 Q1009 W (270°) 28.8mph 8°C 3°C
17/03/19 12:50 EGOP 171250Z AUTO 27022KT 9999 // SCT039/// 09/03 Q1009 W (270°) 25.3mph 9°C 3°C
17/03/19 11:50 EGOP 171150Z AUTO 28020KT 9999 // SCT036/// 09/02 Q1008 W (280°) 23.0mph 9°C 2°C
17/03/19 10:50 EGOP 171050Z AUTO 28020KT 9999 // FEW031/// 08/02 Q1008 W (280°) 23.0mph 8°C 2°C
17/03/19 09:50 EGOP 170950Z AUTO 28021KT 9999 // FEW029/// 08/03 Q1007 W (280°) 24.2mph 8°C 3°C
17/03/19 08:50 EGOP 170850Z AUTO 28018KT 9999 // NCD 07/02 Q1006 W (280°) 20.7mph 7°C 2°C
17/03/19 07:50 EGOP 170750Z AUTO 28018KT 9999 // NCD 05/01 Q1005 W (280°) 20.7mph 5°C 1°C
17/03/19 06:50 EGOP 170650Z AUTO 28017KT 9999 // NCD 04/01 Q1004 W (280°) 19.6mph 4°C 1°C
17/03/19 05:50 EGOP 170550Z AUTO 28018KT 9999 // FEW023/// 05/02 Q1004 W (280°) 20.7mph 5°C 2°C
17/03/19 04:50 EGOP 170450Z AUTO 28016KT 9999 // FEW050/// 05/02 Q1003 W (280°) 18.4mph 5°C 2°C
17/03/19 03:50 EGOP 170350Z AUTO 29018KT 9999 // SCT060/// 05/02 Q1002 WNW (290°) 20.7mph 5°C 2°C
17/03/19 02:50 EGOP 170250Z AUTO 29016KT 9999 // FEW050/// 05/02 Q1001 WNW (290°) 18.4mph 5°C 2°C
17/03/19 01:50 EGOP 170150Z AUTO 28015KT 9999 // BKN140/// 05/03 Q1001 W (280°) 17.3mph 5°C 3°C
17/03/19 00:50 EGOP 170050Z AUTO 28020KT 9999 // FEW035/// 06/03 Q1000 W (280°) 23.0mph 6°C 3°C
16/03/19 23:50 EGOP 162350Z AUTO 28021KT 9999 // FEW090/// 06/03 Q0999 W (280°) 24.2mph 6°C 3°C
16/03/19 22:50 EGOP 162250Z AUTO 28023KT 9999 // NCD 06/04 Q0998 W (280°) 26.5mph 6°C 4°C
16/03/19 21:50 EGOP 162150Z AUTO 27025KT 2400 // FEW034/// BKN090/// 06/04 Q0998 W (270°) 28.8mph 6°C 4°C
16/03/19 20:50 EGOP 162050Z AUTO 28022KT 9999 // NCD 07/05 Q0997 W (280°) 25.3mph 7°C 5°C
16/03/19 19:50 EGOP 161950Z AUTO 27018KT 9999 // SCT070/// BKN170/// 08/06 Q0996 W (270°) 20.7mph 8°C 6°C
16/03/19 18:50 EGOP 161850Z AUTO 27017KT 9999 // FEW036/// BKN050/// 08/06 Q0995 W (270°) 19.6mph 8°C 6°C
16/03/19 17:50 EGOP 161750Z AUTO 25028KT 4300 // FEW010/// SCT018/// BKN050/// 09/08 Q0994 WSW (250°) 32.2mph 9°C 8°C
16/03/19 16:50 EGOP 161650Z AUTO 25026KT 2600 // FEW008/// BKN044/// 09/09 Q0994 WSW (250°) 29.9mph 9°C 9°C
16/03/19 15:50 EGOP 161550Z AUTO 22037G49KT 1400 // BKN006/// BKN014/// 10/09 Q0994 SW (220°) 42.6mph 56.4mph 10°C 9°C
16/03/19 14:50 EGOP 161450Z AUTO 21038KT 1300 // BKN004/// BKN012/// 10/09 Q0995 SSW (210°) 43.7mph 10°C 9°C
16/03/19 13:50 EGOP 161350Z AUTO 21039KT 1500 // BKN006/// BKN014/// 10/09 Q0996 SSW (210°) 44.9mph 10°C 9°C
16/03/19 12:50 EGOP 161250Z AUTO 21038G49KT 1600 // BKN007/// BKN014/// 10/09 Q0997 SSW (210°) 43.7mph 56.4mph 10°C 9°C
16/03/19 11:50 EGOP 161150Z AUTO 21037KT 2500 // BKN010/// BKN016/// 10/08 Q0999 SSW (210°) 42.6mph 10°C 8°C
16/03/19 10:50 EGOP 161050Z AUTO 21038KT 5000 // OVC017/// 10/08 Q1000 SSW (210°) 43.7mph 10°C 8°C
16/03/19 09:50 EGOP 160950Z AUTO 21034KT 6000 // BKN017/// BKN023/// 10/08 Q1001 SSW (210°) 39.1mph 10°C 8°C
16/03/19 08:50 EGOP 160850Z AUTO 22032KT 8000 // BKN022/// 10/08 Q1001 SW (220°) 36.8mph 10°C 8°C
16/03/19 07:50 EGOP 160750Z AUTO 22033KT 7000 // OVC018/// 10/08 Q1002 SW (220°) 38.0mph 10°C 8°C
16/03/19 06:50 EGOP 160650Z AUTO 22031KT 5000 // FEW016/// BKN023/// 10/08 Q1003 SW (220°) 35.7mph 10°C 8°C
16/03/19 05:50 EGOP 160550Z AUTO 23029KT 6000 // BKN010/// BKN018/// 10/09 Q1004 SW (230°) 33.4mph 10°C 9°C
16/03/19 04:50 EGOP 160450Z AUTO 22030KT 4500 // BKN008/// BKN016/// 10/09 Q1005 SW (220°) 34.5mph 10°C 9°C
16/03/19 03:50 EGOP 160350Z AUTO 23029KT 5000 // OVC012/// 10/09 Q1006 SW (230°) 33.4mph 10°C 9°C
16/03/19 02:50 EGOP 160250Z AUTO 23030KT 4300 // OVC009/// 10/09 Q1006 SW (230°) 34.5mph 10°C 9°C
16/03/19 01:50 EGOP 160150Z AUTO 23031KT 3800 // OVC007/// 10/09 Q1007 SW (230°) 35.7mph 10°C 9°C
16/03/19 00:50 EGOP 160050Z AUTO 23030KT 3400 // OVC006/// 10/09 Q1008 SW (230°) 34.5mph 10°C 9°C
15/03/19 23:50 EGOP 152350Z AUTO 23029KT 1700 // OVC004/// 10/09 Q1008 SW (230°) 33.4mph 10°C 9°C
15/03/19 22:50 EGOP 152250Z AUTO 23028KT 2400 // OVC005/// 10/09 Q1009 SW (230°) 32.2mph 10°C 9°C
15/03/19 21:50 EGOP 152150Z AUTO 23028KT 1200 // BKN003/// 10/10 Q1009 SW (230°) 32.2mph 10°C 10°C
15/03/19 20:50 EGOP 152050Z AUTO 21014KT 0800 // FEW002/// BKN010/// 09/09 Q1010 SSW (210°) 16.1mph 9°C 9°C
15/03/19 19:50 EGOP 151950Z AUTO 23015KT 1600 // BKN003/// 09/09 Q1010 SW (230°) 17.3mph 9°C 9°C
15/03/19 18:50 EGOP 151850Z AUTO 24014KT 2800 // BKN003/// SCT020/// 09/09 Q1011 WSW (240°) 16.1mph 9°C 9°C
15/03/19 17:50 EGOP 151750Z AUTO 24016KT 3600 // SCT002/// BKN006/// 09/09 Q1011 WSW (240°) 18.4mph 9°C 9°C
15/03/19 16:50 EGOP 151650Z AUTO 26011KT 2400 // BKN020/// SCT028/// 09/08 Q1011 W (260°) 12.7mph 9°C 8°C
15/03/19 15:50 EGOP 151550Z AUTO 24013KT 4800 // BKN042/// BKN050/// 10/08 Q1010 WSW (240°) 15.0mph 10°C 8°C
15/03/19 14:50 EGOP 151450Z AUTO 23013KT 4700 // BKN041/// BKN050/// 10/08 Q1010 SW (230°) 15.0mph 10°C 8°C
13/03/19 09:50 EGOP 130950Z 29029KT 9999 FEW034 BKN040 09/03 Q1013 BLU WNW (290°) 33.4mph 9°C 3°C
13/03/19 08:50 EGOP 130850Z 28026KT 9999 BKN036 08/04 Q1012 BLU W (280°) 29.9mph 8°C 4°C
13/03/19 07:50 EGOP 130750Z AUTO 28027KT 9999 // FEW037/// BKN044/// 08/03 Q1011 W (280°) 31.1mph 8°C 3°C
13/03/19 06:50 EGOP 130650Z AUTO 27027KT 9999 // OVC040/// 08/04 Q1009 W (270°) 31.1mph 8°C 4°C
13/03/19 05:50 EGOP 130550Z AUTO 28031KT 9999 // OVC039/// 08/04 Q1009 W (280°) 35.7mph 8°C 4°C
13/03/19 04:50 EGOP 130450Z AUTO 27033KT 9999 // OVC043/// 08/03 Q1008 W (270°) 38.0mph 8°C 3°C
13/03/19 03:50 EGOP 130350Z AUTO 27031G42KT 9999 // FEW036/// BKN041/// BKN050/// 08/04 Q1007 W (270°) 35.7mph 48.3mph 8°C 4°C
13/03/19 02:50 EGOP 130250Z AUTO 27030G40KT 9999 // BKN035/// 08/04 Q1007 W (270°) 34.5mph 46.0mph 8°C 4°C
13/03/19 01:50 EGOP 130150Z AUTO 27030G44KT 9999 // FEW028/// BKN034/// 08/04 Q1006 W (270°) 34.5mph 50.6mph 8°C 4°C
13/03/19 00:50 EGOP 130050Z AUTO 26029KT 8000 // BKN036/// 08/04 Q1006 W (260°) 33.4mph 8°C 4°C
12/03/19 23:50 EGOP 122350Z AUTO 26030G40KT 8000 // BKN033/// BKN060/// 08/03 Q1006 W (260°) 34.5mph 46.0mph 8°C 3°C
12/03/19 22:50 EGOP 122250Z AUTO 26031KT 8000 // FEW029/// SCT039/// BKN047/// 08/03 Q1006 W (260°) 35.7mph 8°C 3°C
12/03/19 21:50 EGOP 122150Z AUTO 26028G38KT 7000 // FEW030/// SCT044/// 08/04 Q1006 W (260°) 32.2mph 43.7mph 8°C 4°C
12/03/19 20:50 EGOP 122050Z AUTO 26028KT 8000 // FEW038/// BKN045/// 08/03 Q1005 W (260°) 32.2mph 8°C 3°C
12/03/19 19:50 EGOP 121950Z AUTO 26026G37KT 9999 // BKN042/// SCT090/// 08/02 Q1005 W (260°) 29.9mph 42.6mph 8°C 2°C
12/03/19 18:50 EGOP 121850Z AUTO 26026KT 9999 // FEW037/// SCT180/// 08/03 Q1004 W (260°) 29.9mph 8°C 3°C
12/03/19 17:50 EGOP 121750Z AUTO 26025KT 9999 // SCT036/// 08/03 Q1004 W (260°) 28.8mph 8°C 3°C
12/03/19 16:50 EGOP 121650Z AUTO 26026KT 9999 // SCT036/// 08/03 Q1003 W (260°) 29.9mph 8°C 3°C
12/03/19 15:50 EGOP 121550Z AUTO 26031KT 9999 // BKN033/// SCT050/// 09/03 Q1003 W (260°) 35.7mph 9°C 3°C
12/03/19 14:50 EGOP 121450Z AUTO 26027KT 9999 // FEW029/// 09/04 Q1002 W (260°) 31.1mph 9°C 4°C
12/03/19 13:50 EGOP 121350Z 27017KT 9999 FEW030 09/05 Q1002 BLU W (270°) 19.6mph 9°C 5°C
12/03/19 12:50 EGOP 121250Z 27016KT 9999 FEW028 BKN050 06/04 Q1003 BLU W (270°) 18.4mph 6°C 4°C
12/03/19 11:50 EGOP 121150Z 28016KT 9999 -RA SCT012 BKN020 05/03 Q1003 GRN -RA W (280°) 18.4mph 5°C 3°C
12/03/19 10:50 EGOP 121050Z 28014KT 8000 RA FEW013 BKN031 05/03 Q1003 BLU RA W (280°) 16.1mph 5°C 3°C
10/03/19 07:50 EGOP 100750Z AUTO 28032G47KT 9000 // SCT021/// BKN033/// 07/04 Q1009 W (280°) 36.8mph 54.1mph 7°C 4°C
10/03/19 06:50 EGOP 100650Z AUTO 29021KT 7000 // FEW014/// BKN048/// 06/04 Q1007 WNW (290°) 24.2mph 6°C 4°C
10/03/19 05:50 EGOP 100550Z AUTO 31029KT 9999 // BKN012/// 06/04 Q1004 NW (310°) 33.4mph 6°C 4°C
10/03/19 04:50 EGOP 100450Z AUTO 26028KT 9000 // BKN009/// SCT018/// 10/09 Q0997 W (260°) 32.2mph 10°C 9°C
10/03/19 03:50 EGOP 100350Z AUTO 23028KT 4400 // FEW009/// SCT011/// BKN030/// 10/09 Q0997 SW (230°) 32.2mph 10°C 9°C
10/03/19 02:50 EGOP 100250Z AUTO 23032KT 5000 // SCT006/// BKN018/// 10/09 Q0999 SW (230°) 36.8mph 10°C 9°C
10/03/19 01:50 EGOP 100150Z AUTO 14014G26KT 7000 // SCT007/// BKN012/// 09/09 Q1000 SE (140°) 16.1mph 29.9mph 9°C 9°C
10/03/19 00:50 EGOP 100050Z AUTO 11015KT 5000 // SCT005/// BKN019/// 06/05 Q1002 ESE (110°) 17.3mph 6°C 5°C
9/03/19 23:50 EGOP 092350Z AUTO 11008KT 3100 // FEW005/// BKN022/// 06/05 Q1005 ESE (110°) 9.2mph 6°C 5°C
9/03/19 22:50 EGOP 092250Z AUTO 09005KT 2000 // FEW006/// BKN027/// 06/05 Q1008 E (90°) 5.8mph 6°C 5°C
9/03/19 21:50 EGOP 092150Z AUTO 17009KT 7000 // BKN041/// 06/05 Q1010 S (170°) 10.4mph 6°C 5°C
9/03/19 20:50 EGOP 092050Z AUTO 21009KT 2200 // FEW023/// BKN028/// BKN037/// 07/05 Q1013 SSW (210°) 10.4mph 7°C 5°C
9/03/19 19:50 EGOP 091950Z AUTO 22015KT 4800 // BKN033/// BKN050/// 08/05 Q1014 SW (220°) 17.3mph 8°C 5°C
9/03/19 18:50 EGOP 091850Z AUTO 21024KT 9999 // OVC060/// 09/04 Q1014 SSW (210°) 27.6mph 9°C 4°C
9/03/19 17:50 EGOP 091750Z AUTO 23017KT 8000 // OVC070/// 09/06 Q1015 SW (230°) 19.6mph 9°C 6°C
9/03/19 16:50 EGOP 091650Z AUTO 24017KT 9999 // BKN080/// 09/05 Q1016 WSW (240°) 19.6mph 9°C 5°C
9/03/19 15:50 EGOP 091550Z AUTO 26018KT 9999 // FEW044/// BKN110/// 10/03 Q1017 W (260°) 20.7mph 10°C 3°C
9/03/19 14:50 EGOP 091450Z AUTO 26017KT 9999 // FEW043/// 10/04 Q1016 W (260°) 19.6mph 10°C 4°C
9/03/19 13:50 EGOP 091350Z AUTO 26017KT 9999 // FEW037/// 11/04 Q1016 W (260°) 19.6mph 11°C 4°C
9/03/19 12:50 EGOP 091250Z AUTO 27022KT 9999 // BKN038/// 11/03 Q1015 W (270°) 25.3mph 11°C 3°C
9/03/19 11:50 EGOP 091150Z AUTO 27023G33KT 9999 // FEW043/// 11/03 Q1015 W (270°) 26.5mph 38.0mph 11°C 3°C
9/03/19 10:50 EGOP 091050Z AUTO 28029KT 9999 // FEW035/// SCT044/// 10/03 Q1014 W (280°) 33.4mph 10°C 3°C
9/03/19 09:50 EGOP 090950Z AUTO 28027KT 9999 // FEW024/// 10/05 Q1013 W (280°) 31.1mph 10°C 5°C
9/03/19 08:50 EGOP 090850Z AUTO 28030KT 6000 // FEW027/// BKN050/// 10/07 Q1012 W (280°) 34.5mph 10°C 7°C
9/03/19 07:50 EGOP 090750Z AUTO 26029KT 5000 // BKN017/// BKN024/// 10/08 Q1010 W (260°) 33.4mph 10°C 8°C
9/03/19 06:50 EGOP 090650Z AUTO 23027KT 4600 // FEW024/// BKN040/// 09/08 Q1010 SW (230°) 31.1mph 9°C 8°C
9/03/19 05:50 EGOP 090550Z AUTO 24024KT 4500 // FEW013/// BKN043/// 09/08 Q1010 WSW (240°) 27.6mph 9°C 8°C
9/03/19 04:50 EGOP 090450Z AUTO 24019KT 4700 // SCT015/// BKN230/// 09/08 Q1010 WSW (240°) 21.9mph 9°C 8°C
9/03/19 03:50 EGOP 090350Z AUTO 22018KT 6000 // OVC100/// 09/07 Q1011 SW (220°) 20.7mph 9°C 7°C
9/03/19 02:50 EGOP 090250Z AUTO 23014KT 7000 // OVC120/// 08/06 Q1011 SW (230°) 16.1mph 8°C 6°C
9/03/19 01:50 EGOP 090150Z AUTO 25010KT 6000 // OVC120/// 08/06 Q1012 WSW (250°) 11.5mph 8°C 6°C
9/03/19 00:50 EGOP 090050Z AUTO 26011KT 6000 // OVC120/// 08/06 Q1012 W (260°) 12.7mph 8°C 6°C
8/03/19 23:50 EGOP 082350Z AUTO 26008KT 6000 // OVC140/// 08/06 Q1011 W (260°) 9.2mph 8°C 6°C
8/03/19 22:50 EGOP 082250Z AUTO 28014KT 9000 // BKN140/// 08/05 Q1011 W (280°) 16.1mph 8°C 5°C